Time;durP1;ratioP1;P1;durP2;ratioP2;P2;SDS_P1;SDS_P2;PMS_P1;PMS_P2;Temp;Humidity;BMP_temperature;BMP_pressure;BME280_temperature;BME280_humidity;BME280_pressure;Samples;Min_cycle;Max_cycle;Signal;HPM_P1;HPM_P2
2022/09/11 00:01:21;;;;;;;6.60;5.00;;;14.80;99.90;;;;;;5032081;28;20199;-73
2022/09/11 00:03:47;;;;;;;7.30;4.83;;;14.80;99.90;;;;;;5031928;28;20406;-74
2022/09/11 00:06:16;;;;;;;8.47;5.10;;;14.80;99.90;;;;;;5031799;28;20521;-73
2022/09/11 00:08:42;;;;;;;6.10;5.50;;;14.70;99.90;;;;;;5032330;28;20407;-74
2022/09/11 00:11:16;;;;;;;6.10;5.60;;;14.70;99.90;;;;;;5032147;28;20505;-73
2022/09/11 00:13:42;;;;;;;7.47;6.13;;;14.80;99.90;;;;;;5032177;28;20406;-73
2022/09/11 00:16:27;;;;;;;6.27;5.60;;;14.80;99.90;;;;;;5031733;28;20803;-72
2022/09/11 00:18:55;;;;;;;6.60;6.00;;;14.80;99.90;;;;;;5032519;28;20410;-73
2022/09/11 00:21:22;;;;;;;6.70;6.00;;;14.80;99.90;;;;;;5031893;28;20446;-74
2022/09/11 00:23:50;;;;;;;6.97;5.07;;;14.80;99.90;;;;;;5031981;28;20402;-74
2022/09/11 00:26:16;;;;;;;8.33;6.53;;;14.70;99.90;;;;;;5031799;28;20431;-73
2022/09/11 00:28:42;;;;;;;9.20;6.10;;;14.70;99.90;;;;;;5031853;28;20402;-73
2022/09/11 00:31:16;;;;;;;6.23;5.60;;;14.70;99.90;;;;;;5032041;28;20468;-74
2022/09/11 00:33:42;;;;;;;7.07;6.30;;;14.70;99.90;;;;;;5031973;28;20173;-73
2022/09/11 00:36:13;;;;;;;7.23;5.33;;;14.70;99.90;;;;;;5033813;28;20433;-73
2022/09/11 00:38:39;;;;;;;7.50;6.07;;;14.60;99.90;;;;;;5035812;28;20457;-73
2022/09/11 00:41:34;;;;;;;6.33;5.73;;;14.70;99.90;;;;;;5035430;28;20413;-72
2022/09/11 00:44:14;;;;;;;8.60;6.17;;;14.60;99.90;;;;;;5032004;28;20185;-74
2022/09/11 00:46:55;;;;;;;8.27;6.30;;;14.60;99.90;;;;;;5035298;28;20858;-73
2022/09/11 00:49:29;;;;;;;6.43;5.83;;;14.60;99.90;;;;;;5035282;28;20402;-72
2022/09/11 00:52:01;;;;;;;8.57;7.53;;;14.70;99.90;;;;;;5035391;28;20413;-73
2022/09/11 00:54:31;;;;;;;6.93;6.33;;;14.70;99.90;;;;;;5036000;28;20394;-73
2022/09/11 00:57:01;;;;;;;9.70;7.57;;;14.70;99.90;;;;;;5035971;28;20461;-72
2022/09/11 00:59:30;;;;;;;7.17;6.47;;;14.70;99.90;;;;;;5040731;28;20770;-73
2022/09/11 01:01:56;;;;;;;7.67;6.87;;;14.70;99.90;;;;;;5041828;28;20449;-73
2022/09/11 01:04:23;;;;;;;8.00;6.23;;;14.70;99.90;;;;;;5034985;28;20411;-72
2022/09/11 01:06:54;;;;;;;7.43;6.50;;;14.70;99.90;;;;;;5034953;28;20456;-74
2022/09/11 01:09:20;;;;;;;8.33;7.43;;;14.70;99.90;;;;;;5035081;28;20410;-73
2022/09/11 01:12:23;;;;;;;6.33;5.70;;;14.80;99.90;;;;;;5035052;28;20436;-73
2022/09/11 01:15:03;;;;;;;7.90;7.10;;;14.80;99.90;;;;;;5034572;28;20179;-72
2022/09/11 01:17:53;;;;;;;7.10;6.03;;;14.80;99.90;;;;;;5034778;28;20406;-73
2022/09/11 01:20:30;;;;;;;7.20;5.43;;;14.80;99.90;;;;;;5034970;28;20411;-74
2022/09/11 01:23:13;;;;;;;7.33;6.63;;;14.80;99.90;;;;;;5034810;28;20450;-73
2022/09/11 01:25:57;;;;;;;6.60;5.67;;;14.80;99.90;;;;;;5034792;28;20430;-73
2022/09/11 01:28:30;;;;;;;6.43;5.43;;;14.80;99.90;;;;;;5034767;28;20458;-73
2022/09/11 01:31:04;;;;;;;6.70;6.03;;;14.70;99.90;;;;;;5034843;28;20418;-73
2022/09/11 01:33:49;;;;;;;7.53;6.20;;;14.70;99.90;;;;;;5034905;28;20886;-73
2022/09/11 01:36:33;;;;;;;8.03;6.00;;;14.70;99.90;;;;;;5035571;28;20503;-73
2022/09/11 01:39:01;;;;;;;6.63;5.93;;;14.70;99.90;;;;;;5036964;28;20406;-73
2022/09/11 01:41:45;;;;;;;6.40;5.60;;;14.70;99.90;;;;;;5040872;28;20469;-73
2022/09/11 01:44:21;;;;;;;6.30;5.23;;;14.70;99.90;;;;;;5045360;28;20402;-73
2022/09/11 01:46:50;;;;;;;6.00;5.40;;;14.60;99.90;;;;;;5034863;28;20902;-74
2022/09/11 01:49:30;;;;;;;6.20;5.60;;;14.60;99.90;;;;;;5034566;28;20413;-73
2022/09/11 01:52:02;;;;;;;8.57;5.77;;;14.60;99.90;;;;;;5034305;28;20433;-73
2022/09/11 01:54:51;;;;;;;7.67;6.20;;;14.50;99.90;;;;;;5032890;28;20409;-72
2022/09/11 01:57:28;;;;;;;8.93;5.60;;;14.50;99.90;;;;;;5036659;28;20450;-74
2022/09/11 01:59:59;;;;;;;6.40;5.57;;;14.50;99.90;;;;;;5039453;28;20396;-74
2022/09/11 02:02:32;;;;;;;6.73;5.27;;;14.40;99.90;;;;;;5039797;28;20446;-73
2022/09/11 02:05:14;;;;;;;4.33;3.70;;;14.40;99.90;;;;;;5020599;28;20410;-72
2022/09/11 02:08:11;;;;;;;5.97;5.40;;;14.30;99.90;;;;;;5039681;28;20411;-75
2022/09/11 02:10:48;;;;;;;5.50;4.97;;;14.20;99.90;;;;;;5004191;28;20431;-73
2022/09/11 02:13:22;;;;;;;8.03;5.70;;;14.20;99.90;;;;;;5021567;28;20474;-74
2022/09/11 02:15:52;;;;;;;6.23;5.33;;;14.10;99.90;;;;;;5039109;28;20484;-74
2022/09/11 02:18:28;;;;;;;5.40;4.90;;;14.10;99.90;;;;;;5039337;28;20402;-73
2022/09/11 02:20:54;;;;;;;4.53;4.13;;;14.00;99.90;;;;;;5039736;28;20411;-73
2022/09/11 02:23:20;;;;;;;4.80;4.30;;;14.00;99.90;;;;;;5039998;28;20465;-73
2022/09/11 02:25:46;;;;;;;6.43;4.87;;;14.00;99.90;;;;;;5043050;28;20188;-73
2022/09/11 02:28:12;;;;;;;4.90;4.50;;;14.00;99.90;;;;;;5043422;28;20418;-74
2022/09/11 02:30:40;;;;;;;6.30;4.93;;;13.90;99.90;;;;;;5026342;28;20424;-73
2022/09/11 02:33:37;;;;;;;6.33;4.70;;;13.90;99.90;;;;;;5043754;28;20465;-73
2022/09/11 02:36:25;;;;;;;6.80;4.90;;;13.80;99.90;;;;;;5025762;28;20453;-74
2022/09/11 02:38:53;;;;;;;5.83;5.30;;;13.80;99.90;;;;;;5044737;28;20413;-74
2022/09/11 02:41:27;;;;;;;4.83;4.27;;;13.80;99.90;;;;;;5043460;28;20457;-73
2022/09/11 02:44:35;;;;;;;5.57;5.03;;;13.70;99.90;;;;;;5042348;28;20746;-73
2022/09/11 02:47:10;;;;;;;7.13;5.03;;;13.70;99.90;;;;;;5047954;28;20422;-74
2022/09/11 02:49:56;;;;;;;5.67;5.07;;;13.70;99.90;;;;;;5022534;28;20412;-74
2022/09/11 02:52:46;;;;;;;5.70;4.90;;;13.60;99.90;;;;;;5039267;28;20410;-73
2022/09/11 02:55:29;;;;;;;5.57;5.00;;;13.60;99.90;;;;;;5039050;28;20434;-77
2022/09/11 02:58:11;;;;;;;4.87;4.33;;;13.60;99.90;;;;;;5038938;28;20490;-73
2022/09/11 03:00:38;;;;;;;7.30;5.33;;;13.60;99.90;;;;;;5039592;28;20406;-73
2022/09/11 03:03:04;;;;;;;6.77;6.07;;;13.60;99.90;;;;;;5040486;28;20461;-73
2022/09/11 03:05:30;;;;;;;5.37;4.83;;;13.70;99.90;;;;;;5041190;28;20427;-75
2022/09/11 03:07:55;;;;;;;6.87;6.13;;;13.70;99.90;;;;;;5041671;28;20247;-73
2022/09/11 03:10:21;;;;;;;6.93;6.00;;;13.70;99.90;;;;;;5042058;28;20159;-74
2022/09/11 03:12:46;;;;;;;9.30;7.37;;;13.70;99.90;;;;;;5043715;28;20653;-74
2022/09/11 03:15:12;;;;;;;9.50;7.00;;;13.70;99.90;;;;;;5042694;28;20195;-74
2022/09/11 03:17:39;;;;;;;11.03;7.30;;;13.70;99.90;;;;;;5042797;28;20255;-74
2022/09/11 03:20:05;;;;;;;9.30;7.17;;;13.60;99.90;;;;;;5043381;28;20462;-74
2022/09/11 03:22:31;;;;;;;9.27;7.23;;;13.60;99.90;;;;;;5043369;28;20446;-74
2022/09/11 03:24:56;;;;;;;11.27;8.50;;;13.50;99.90;;;;;;5043073;28;20407;-73
2022/09/11 03:27:22;;;;;;;9.70;7.90;;;13.60;99.90;;;;;;5043913;28;20172;-75
2022/09/11 03:29:48;;;;;;;7.73;6.93;;;13.60;99.90;;;;;;5043856;28;20191;-73
2022/09/11 03:32:15;;;;;;;12.63;8.63;;;13.50;99.90;;;;;;5044410;28;20410;-73
2022/09/11 03:34:40;;;;;;;13.40;9.50;;;13.50;99.90;;;;;;5043331;28;20239;-73
2022/09/11 03:37:06;;;;;;;9.83;8.83;;;13.50;99.90;;;;;;5024994;28;20442;-73
2022/09/11 03:39:31;;;;;;;11.97;9.97;;;13.40;99.90;;;;;;5039901;28;20168;-73
2022/09/11 03:41:57;;;;;;;12.53;7.63;;;13.40;99.90;;;;;;5042177;28;20573;-73
2022/09/11 03:44:23;;;;;;;9.87;8.77;;;13.40;99.90;;;;;;5042277;28;20168;-74
2022/09/11 03:46:48;;;;;;;12.30;8.70;;;13.40;99.90;;;;;;5041283;28;20273;-74
2022/09/11 03:49:14;;;;;;;9.90;8.90;;;13.30;99.90;;;;;;5040589;28;20160;-74
2022/09/11 03:51:40;;;;;;;9.67;8.67;;;13.30;99.90;;;;;;5036594;28;20163;-73
2022/09/11 03:54:06;;;;;;;12.70;9.50;;;13.40;99.90;;;;;;5036896;28;20433;-73
2022/09/11 03:56:32;;;;;;;10.43;8.90;;;13.40;99.90;;;;;;5036219;28;20195;-74
2022/09/11 03:59:01;;;;;;;13.00;9.37;;;13.30;99.90;;;;;;5019117;28;20434;-73
2022/09/11 04:01:27;;;;;;;9.83;8.33;;;13.30;99.90;;;;;;5037157;28;20236;-74
2022/09/11 04:03:53;;;;;;;15.70;10.93;;;13.20;99.90;;;;;;5039372;28;20414;-74
2022/09/11 04:06:19;;;;;;;11.83;9.40;;;13.20;99.90;;;;;;5041940;28;20433;-74
2022/09/11 04:08:45;;;;;;;10.90;8.77;;;13.20;99.90;;;;;;5024302;28;20168;-73
2022/09/11 04:11:11;;;;;;;13.33;8.23;;;13.20;99.90;;;;;;5024061;28;20175;-73
2022/09/11 04:13:38;;;;;;;13.07;8.27;;;13.20;99.90;;;;;;5037556;28;20429;-73
2022/09/11 04:16:07;;;;;;;12.63;8.40;;;13.20;99.90;;;;;;5037706;28;20183;-73
2022/09/11 04:18:35;;;;;;;11.60;7.70;;;13.30;99.90;;;;;;5036713;28;20433;-74
2022/09/11 04:21:11;;;;;;;12.97;8.40;;;13.30;99.90;;;;;;5036830;28;20492;-73
2022/09/11 04:23:37;;;;;;;11.83;7.77;;;13.30;99.90;;;;;;5018925;28;20424;-73
2022/09/11 04:26:16;;;;;;;16.27;9.60;;;13.30;99.90;;;;;;5036421;28;20802;-73
2022/09/11 04:28:42;;;;;;;15.13;8.90;;;13.30;99.90;;;;;;5036718;28;20398;-73
2022/09/11 04:31:07;;;;;;;18.00;11.17;;;13.40;99.90;;;;;;5038573;28;20398;-73
2022/09/11 04:33:35;;;;;;;13.10;8.70;;;13.40;99.90;;;;;;5042273;28;20406;-73
2022/09/11 04:36:08;;;;;;;13.00;7.97;;;13.40;99.90;;;;;;5037379;28;20189;-74
2022/09/11 04:38:33;;;;;;;14.30;8.93;;;13.40;99.90;;;;;;5037573;28;20771;-73
2022/09/11 04:41:01;;;;;;;19.37;9.57;;;13.50;99.90;;;;;;5037033;28;20399;-74
2022/09/11 04:43:27;;;;;;;14.93;9.73;;;13.50;99.90;;;;;;5037180;28;20201;-74
2022/09/11 04:45:59;;;;;;;17.20;9.60;;;13.50;99.90;;;;;;5036776;28;20471;-73
2022/09/11 04:48:25;;;;;;;14.80;8.73;;;13.50;99.90;;;;;;5037999;28;20402;-73
2022/09/11 04:51:01;;;;;;;12.43;8.10;;;13.60;99.90;;;;;;5037942;28;20399;-73
2022/09/11 04:53:27;;;;;;;13.20;8.43;;;13.60;99.90;;;;;;5038392;28;20191;-73
2022/09/11 04:56:01;;;;;;;16.60;10.03;;;13.60;99.90;;;;;;5039083;28;20438;-73
2022/09/11 04:58:28;;;;;;;16.37;9.90;;;13.70;99.90;;;;;;5044330;28;20509;-74
2022/09/11 05:00:53;;;;;;;14.83;9.20;;;13.70;99.90;;;;;;5051497;28;20402;-73
2022/09/11 05:03:19;;;;;;;15.33;8.70;;;13.80;99.90;;;;;;5049989;28;20479;-73
2022/09/11 05:05:45;;;;;;;15.93;8.97;;;13.80;99.90;;;;;;5036391;28;20270;-73
2022/09/11 05:08:11;;;;;;;15.97;9.60;;;13.90;99.90;;;;;;5035923;28;20490;-74
2022/09/11 05:10:41;;;;;;;18.67;9.50;;;13.90;99.90;;;;;;5035926;28;20175;-73
2022/09/11 05:13:07;;;;;;;15.13;9.60;;;13.90;99.90;;;;;;5036080;28;20693;-72
2022/09/11 05:15:33;;;;;;;13.07;9.27;;;14.00;99.90;;;;;;5035586;28;20430;-73
2022/09/11 05:17:59;;;;;;;16.20;9.37;;;14.00;99.90;;;;;;5036744;28;20407;-73
2022/09/11 05:20:24;;;;;;;14.77;9.47;;;14.10;99.90;;;;;;5018828;28;20485;-73
2022/09/11 05:22:50;;;;;;;22.03;13.30;;;14.10;99.90;;;;;;5038996;28;20678;-73
2022/09/11 05:25:17;;;;;;;26.57;14.93;;;14.10;99.90;;;;;;5022876;28;20194;-73
2022/09/11 05:27:42;;;;;;;25.57;14.00;;;14.10;99.90;;;;;;5022294;28;20163;-73
2022/09/11 05:30:09;;;;;;;23.17;14.23;;;14.20;99.90;;;;;;5039546;28;20496;-73
2022/09/11 05:32:34;;;;;;;20.63;13.60;;;14.30;99.90;;;;;;5039524;28;20250;-73
2022/09/11 05:35:00;;;;;;;18.93;11.13;;;14.40;99.90;;;;;;5039271;28;20456;-73
2022/09/11 05:37:25;;;;;;;21.07;13.10;;;14.40;99.90;;;;;;5021071;28;20183;-74
2022/09/11 05:39:51;;;;;;;20.67;11.60;;;14.50;99.90;;;;;;5022326;28;20646;-73
2022/09/11 05:42:17;;;;;;;22.80;12.80;;;14.60;99.90;;;;;;5039889;28;20552;-73
2022/09/11 05:44:43;;;;;;;20.40;11.30;;;14.60;99.90;;;;;;5039340;28;20255;-73
2022/09/11 05:47:09;;;;;;;21.77;12.37;;;14.60;99.90;;;;;;5039867;28;20202;-73
2022/09/11 05:49:34;;;;;;;19.67;11.60;;;14.70;99.90;;;;;;5039040;28;20658;-74
2022/09/11 05:52:00;;;;;;;17.63;11.87;;;14.60;99.90;;;;;;5021970;28;20952;-73
2022/09/11 05:54:26;;;;;;;18.37;11.27;;;14.70;99.90;;;;;;5038969;28;20232;-73
2022/09/11 05:56:52;;;;;;;21.63;12.63;;;14.70;99.90;;;;;;5038966;28;20480;-73
2022/09/11 05:59:19;;;;;;;23.27;13.10;;;14.80;99.90;;;;;;5039708;28;20596;-73
2022/09/11 06:01:46;;;;;;;19.50;13.10;;;14.80;99.90;;;;;;5039943;28;20670;-73
2022/09/11 06:04:12;;;;;;;18.10;10.83;;;14.80;99.90;;;;;;5022201;28;20425;-73
2022/09/11 06:06:38;;;;;;;20.10;11.43;;;14.80;99.90;;;;;;5021249;28;20477;-73
2022/09/11 06:09:05;;;;;;;15.30;10.30;;;14.90;99.90;;;;;;5039296;28;20407;-74
2022/09/11 06:11:31;;;;;;;19.30;12.27;;;15.00;99.90;;;;;;5041630;28;20466;-73
2022/09/11 06:13:57;;;;;;;18.97;10.93;;;14.90;99.90;;;;;;5040348;28;20407;-73
2022/09/11 06:16:24;;;;;;;19.53;13.33;;;15.00;99.90;;;;;;5040132;28;20432;-73
2022/09/11 06:18:50;;;;;;;18.43;10.93;;;15.10;99.90;;;;;;5027819;28;20177;-73
2022/09/11 06:21:19;;;;;;;19.80;12.73;;;15.20;99.90;;;;;;5023217;28;20469;-74
2022/09/11 06:23:45;;;;;;;16.17;10.37;;;15.20;99.90;;;;;;5039025;28;20401;-74
2022/09/11 06:26:14;;;;;;;16.53;10.63;;;15.40;99.90;;;;;;5039659;28;20423;-73
2022/09/11 06:28:40;;;;;;;18.30;12.70;;;15.50;99.90;;;;;;5042769;28;20399;-72
2022/09/11 06:31:08;;;;;;;17.33;10.77;;;15.50;99.90;;;;;;5022228;28;20416;-74
2022/09/11 06:33:35;;;;;;;22.63;12.33;;;15.50;99.90;;;;;;5038416;28;20450;-73
2022/09/11 06:36:04;;;;;;;18.00;11.63;;;15.50;99.90;;;;;;5038377;28;20422;-72
2022/09/11 06:38:30;;;;;;;21.03;12.63;;;15.50;99.90;;;;;;5038983;28;20439;-73
2022/09/11 06:40:58;;;;;;;16.30;10.60;;;15.40;99.90;;;;;;5020889;28;20416;-73
2022/09/11 06:43:23;;;;;;;13.87;10.67;;;15.40;99.90;;;;;;5040137;28;20398;-73
2022/09/11 06:45:50;;;;;;;17.53;11.30;;;15.40;99.90;;;;;;5040625;28;21021;-73
2022/09/11 06:48:17;;;;;;;16.53;11.17;;;15.40;99.90;;;;;;5041098;28;20571;-73
2022/09/11 06:50:43;;;;;;;18.23;11.00;;;15.40;99.90;;;;;;5041750;28;20467;-73
2022/09/11 06:53:10;;;;;;;18.97;12.30;;;15.50;99.90;;;;;;5042493;28;20501;-73
2022/09/11 06:55:35;;;;;;;15.80;10.77;;;15.60;99.90;;;;;;5024700;28;20754;-73
2022/09/11 06:58:01;;;;;;;14.60;10.63;;;15.70;99.90;;;;;;5025233;28;20455;-74
2022/09/11 07:00:27;;;;;;;16.63;11.80;;;15.70;99.90;;;;;;5043240;28;20174;-74
2022/09/11 07:02:53;;;;;;;18.57;10.07;;;15.70;99.90;;;;;;5043296;28;20193;-74
2022/09/11 07:05:21;;;;;;;15.23;10.97;;;15.70;99.90;;;;;;5040268;28;20439;-73
2022/09/11 07:07:47;;;;;;;14.10;10.97;;;15.70;99.90;;;;;;5038941;28;20399;-73
2022/09/11 07:10:13;;;;;;;13.10;9.50;;;15.70;99.90;;;;;;5041949;28;20412;-74
2022/09/11 07:12:38;;;;;;;14.17;9.47;;;15.70;99.90;;;;;;5042220;28;20420;-74
2022/09/11 07:15:08;;;;;;;15.20;10.07;;;15.60;99.90;;;;;;5025193;28;20205;-73
2022/09/11 07:17:35;;;;;;;14.70;10.70;;;15.60;99.90;;;;;;5043154;28;20169;-73
2022/09/11 07:20:02;;;;;;;11.10;9.00;;;15.60;99.90;;;;;;5044467;28;20399;-73
2022/09/11 07:22:29;;;;;;;14.40;9.50;;;15.70;99.90;;;;;;5044620;28;20474;-74
2022/09/11 07:24:55;;;;;;;14.87;9.77;;;15.70;99.90;;;;;;5041977;28;20418;-74
2022/09/11 07:27:21;;;;;;;14.30;9.97;;;15.80;99.90;;;;;;5040956;28;20473;-73
2022/09/11 07:29:47;;;;;;;11.40;8.33;;;15.90;99.90;;;;;;5039138;28;20292;-73
2022/09/11 07:32:12;;;;;;;15.53;9.03;;;16.10;99.90;;;;;;5037624;28;20450;-73
2022/09/11 07:34:38;;;;;;;13.70;8.70;;;16.20;99.90;;;;;;5037904;28;20228;-74
2022/09/11 07:37:04;;;;;;;10.93;8.57;;;16.40;99.90;;;;;;5037895;28;20248;-74
2022/09/11 07:39:29;;;;;;;13.67;9.57;;;16.80;99.90;;;;;;5037637;28;20195;-74
2022/09/11 07:41:55;;;;;;;11.40;8.50;;;17.70;99.90;;;;;;5037570;28;20459;-74
2022/09/11 07:44:22;;;;;;;12.10;7.77;;;18.50;99.90;;;;;;5036664;28;20168;-73
2022/09/11 07:46:48;;;;;;;9.47;7.00;;;19.00;99.90;;;;;;5037254;28;20190;-74
2022/09/11 07:49:14;;;;;;;10.10;7.57;;;19.10;99.90;;;;;;5037265;28;20410;-74
2022/09/11 07:51:39;;;;;;;9.87;7.00;;;19.50;99.90;;;;;;5036488;28;20412;-74
2022/09/11 07:54:05;;;;;;;9.00;6.17;;;19.60;99.90;;;;;;5037126;28;20504;-74
2022/09/11 07:58:56;;;;;;;10.97;6.90;;;20.00;99.90;;;;;;5045897;22;20475;-69
2022/09/11 08:01:29;;;;;;;10.60;6.80;;;20.40;99.90;;;;;;5032157;28;20198;-68
2022/09/11 08:03:57;;;;;;;12.07;7.90;;;19.90;99.90;;;;;;5032177;28;20651;-68
2022/09/11 08:06:26;;;;;;;7.83;6.17;;;19.30;99.90;;;;;;5032188;28;20786;-69
2022/09/11 08:09:04;;;;;;;11.70;7.53;;;19.60;99.90;;;;;;5031989;28;20415;-68
2022/09/11 08:11:33;;;;;;;10.20;7.60;;;19.60;99.90;;;;;;5032559;28;20408;-68
2022/09/11 08:13:58;;;;;;;9.27;7.10;;;19.60;99.90;;;;;;5031917;28;20417;-68
2022/09/11 08:16:26;;;;;;;9.53;7.93;;;20.00;99.90;;;;;;5032106;28;20413;-69
2022/09/11 08:18:52;;;;;;;8.60;7.10;;;20.20;99.90;;;;;;5033914;28;20715;-69
2022/09/11 08:21:19;;;;;;;12.20;9.17;;;19.80;99.90;;;;;;5031846;28;20406;-68
2022/09/11 08:23:45;;;;;;;8.97;8.07;;;19.50;99.90;;;;;;5032008;28;20400;-69
2022/09/11 08:26:16;;;;;;;9.10;7.47;;;19.40;99.90;;;;;;5031504;28;20910;-68
2022/09/11 08:28:42;;;;;;;9.23;7.70;;;19.20;99.90;;;;;;5014370;28;20460;-69
2022/09/11 08:31:09;;;;;;;9.63;8.07;;;19.30;99.90;;;;;;5031612;28;20404;-68
2022/09/11 08:33:34;;;;;;;12.47;8.17;;;19.20;99.90;;;;;;5031963;28;20406;-68
2022/09/11 08:36:03;;;;;;;10.07;7.70;;;19.20;99.90;;;;;;5031496;28;20981;-68
2022/09/11 08:38:29;;;;;;;11.40;8.27;;;19.30;99.90;;;;;;5013881;28;20554;-68
2022/09/11 08:41:08;;;;;;;9.80;8.07;;;19.20;99.90;;;;;;5031618;28;20405;-67
2022/09/11 08:43:37;;;;;;;9.27;7.90;;;19.10;99.90;;;;;;5031666;28;20406;-70
2022/09/11 08:46:08;;;;;;;11.80;8.23;;;18.90;99.90;;;;;;5031393;28;20402;-67
2022/09/11 08:49:00;;;;;;;9.20;7.00;;;18.90;99.90;;;;;;5031837;28;20462;-68
2022/09/11 08:51:26;;;;;;;9.77;7.17;;;18.90;99.90;;;;;;5027016;28;20843;-68
2022/09/11 08:53:54;;;;;;;8.87;7.53;;;19.00;99.90;;;;;;5031681;28;20415;-68
2022/09/11 08:56:22;;;;;;;10.23;7.77;;;19.10;99.90;;;;;;5032067;28;20202;-68
2022/09/11 08:59:23;;;;;;;9.33;6.93;;;19.10;99.90;;;;;;5034808;28;20962;-67
2022/09/11 09:02:08;;;;;;;9.97;7.20;;;19.40;99.90;;;;;;5035543;28;20450;-68
2022/09/11 09:05:04;;;;;;;9.17;7.23;;;19.40;99.90;;;;;;5035372;28;20406;-68
2022/09/11 09:07:58;;;;;;;8.07;7.27;;;19.30;99.90;;;;;;5035424;28;20454;-68
2022/09/11 09:10:26;;;;;;;10.43;7.03;;;19.10;99.90;;;;;;5035281;28;20401;-68
2022/09/11 09:13:12;;;;;;;9.97;6.80;;;19.00;99.90;;;;;;5034914;28;20823;-69
2022/09/11 09:16:01;;;;;;;7.00;6.10;;;19.00;99.90;;;;;;5034616;28;20840;-68
2022/09/11 09:18:45;;;;;;;9.00;6.70;;;19.10;99.90;;;;;;5034972;28;20790;-67
2022/09/11 09:21:27;;;;;;;8.37;6.80;;;19.00;99.90;;;;;;5034705;28;20406;-68
2022/09/11 09:23:59;;;;;;;8.03;6.20;;;19.10;99.90;;;;;;5034952;28;20386;-68
2022/09/11 09:26:34;;;;;;;9.23;6.63;;;19.30;99.90;;;;;;5034729;28;20400;-67
2022/09/11 09:29:03;;;;;;;8.43;6.50;;;19.50;99.90;;;;;;5034926;28;20885;-69
2022/09/11 09:31:30;;;;;;;7.50;6.67;;;19.20;99.90;;;;;;5034891;28;20409;-67
2022/09/11 09:34:01;;;;;;;6.87;5.77;;;19.00;99.90;;;;;;5034583;28;20408;-67
2022/09/11 09:36:38;;;;;;;8.30;6.10;;;18.90;99.90;;;;;;5034646;28;20455;-67
2022/09/11 09:39:12;;;;;;;8.10;6.87;;;18.90;99.90;;;;;;5034700;28;20398;-67
2022/09/11 09:41:57;;;;;;;10.73;6.57;;;18.90;99.90;;;;;;5034619;28;20452;-67
2022/09/11 09:44:49;;;;;;;9.23;7.53;;;18.80;99.90;;;;;;5034459;28;20450;-67
2022/09/11 09:47:16;;;;;;;9.40;6.03;;;18.90;99.90;;;;;;5034573;28;20927;-69
2022/09/11 09:49:42;;;;;;;8.93;6.70;;;19.10;99.90;;;;;;5016786;28;20466;-68
2022/09/11 09:52:18;;;;;;;9.37;6.63;;;19.50;99.90;;;;;;5034279;28;20922;-68
2022/09/11 09:55:01;;;;;;;9.50;5.73;;;19.50;99.90;;;;;;5034238;28;20474;-70
2022/09/11 09:57:33;;;;;;;9.87;6.20;;;19.70;99.90;;;;;;5034398;28;20484;-69
2022/09/11 10:00:11;;;;;;;5.43;4.83;;;19.80;99.90;;;;;;5034128;28;20910;-67
2022/09/11 10:02:52;;;;;;;9.90;7.53;;;19.80;99.90;;;;;;5034177;28;20473;-67
2022/09/11 10:05:24;;;;;;;6.73;5.60;;;19.50;99.90;;;;;;5034137;28;20816;-67
2022/09/11 10:07:53;;;;;;;9.40;6.93;;;19.20;99.90;;;;;;5033868;28;20785;-69
2022/09/11 10:10:35;;;;;;;9.20;7.30;;;19.30;99.90;;;;;;5034329;28;20507;-68
2022/09/11 10:13:15;;;;;;;8.20;6.47;;;19.00;99.90;;;;;;5034108;28;20929;-69
2022/09/11 10:15:41;;;;;;;7.23;5.40;;;19.10;99.90;;;;;;5033724;28;20403;-68
2022/09/11 10:18:32;;;;;;;7.83;6.00;;;19.00;99.90;;;;;;5016057;28;20437;-68
2022/09/11 10:21:10;;;;;;;7.70;6.90;;;19.40;99.90;;;;;;5015929;28;20427;-68
2022/09/11 10:23:45;;;;;;;9.60;6.80;;;19.30;99.90;;;;;;5033828;28;20932;-68
2022/09/11 10:26:21;;;;;;;7.87;7.07;;;19.40;99.90;;;;;;5033187;28;20399;-68
2022/09/11 10:28:48;;;;;;;6.43;5.40;;;20.10;99.90;;;;;;5033766;28;20426;-68
2022/09/11 10:31:17;;;;;;;7.30;6.27;;;20.40;99.90;;;;;;5033545;28;20804;-68
2022/09/11 10:33:58;;;;;;;13.40;7.93;;;20.50;99.90;;;;;;5033490;28;20402;-69
2022/09/11 10:36:26;;;;;;;6.77;5.40;;;20.50;99.90;;;;;;5033687;28;20401;-70
2022/09/11 10:38:54;;;;;;;7.77;6.20;;;20.30;99.90;;;;;;5033513;28;20429;-68
2022/09/11 10:41:22;;;;;;;6.43;5.83;;;20.50;99.90;;;;;;5033514;28;20502;-68
2022/09/11 10:43:54;;;;;;;6.13;5.47;;;20.20;99.90;;;;;;5033351;28;20910;-69
2022/09/11 10:46:29;;;;;;;7.57;6.20;;;20.50;99.90;;;;;;5033829;28;20400;-68
2022/09/11 10:48:58;;;;;;;8.80;6.40;;;20.10;99.90;;;;;;5033404;28;20451;-68
2022/09/11 10:51:26;;;;;;;7.27;5.90;;;20.40;99.90;;;;;;5032992;28;20415;-68
2022/09/11 10:54:29;;;;;;;5.73;4.83;;;20.30;99.90;;;;;;5033319;28;20812;-68
2022/09/11 10:57:24;;;;;;;8.50;5.70;;;20.20;99.90;;;;;;5032863;28;20442;-68
2022/09/11 11:00:08;;;;;;;8.10;5.80;;;19.80;99.90;;;;;;5033216;28;20771;-68
2022/09/11 11:02:39;;;;;;;6.60;4.93;;;19.40;99.90;;;;;;5032920;28;21009;-69
2022/09/11 11:05:18;;;;;;;6.60;5.30;;;19.70;99.90;;;;;;5032685;28;20410;-68
2022/09/11 11:07:53;;;;;;;6.00;5.17;;;19.90;99.90;;;;;;5033054;28;20421;-68
2022/09/11 11:10:42;;;;;;;5.83;5.30;;;19.90;99.90;;;;;;5033178;28;20427;-68
2022/09/11 11:13:29;;;;;;;5.17;4.30;;;19.70;99.90;;;;;;4986690;28;20539;-67
2022/09/11 11:16:14;;;;;;;5.43;4.63;;;19.90;99.90;;;;;;5032605;28;20971;-68
2022/09/11 11:19:24;;;;;;;6.20;4.43;;;20.10;99.90;;;;;;5032229;28;20514;-68
2022/09/11 11:22:22;;;;;;;6.77;4.97;;;20.30;99.90;;;;;;5032474;28;20448;-68
2022/09/11 11:25:21;;;;;;;7.97;6.30;;;20.40;99.90;;;;;;4998845;28;20756;-67
2022/09/11 11:28:12;;;;;;;6.03;5.13;;;20.60;99.90;;;;;;5032537;28;20793;-67
2022/09/11 11:30:45;;;;;;;5.63;5.00;;;20.30;99.90;;;;;;5032544;28;20763;-67
2022/09/11 11:33:24;;;;;;;6.80;5.80;;;20.50;99.90;;;;;;5032393;28;20762;-67
2022/09/11 11:36:12;;;;;;;5.30;4.77;;;20.70;99.90;;;;;;5032308;28;20406;-69
2022/09/11 11:38:41;;;;;;;5.17;4.67;;;20.80;99.90;;;;;;5032449;28;20429;-67
2022/09/11 11:41:18;;;;;;;4.73;4.33;;;20.80;99.90;;;;;;5032147;28;20778;-67
2022/09/11 11:43:47;;;;;;;4.60;4.17;;;20.90;99.90;;;;;;5032281;28;20425;-67
2022/09/11 11:46:37;;;;;;;5.50;4.10;;;20.90;99.90;;;;;;5032115;28;20392;-67
2022/09/11 11:49:40;;;;;;;4.17;3.83;;;20.60;99.90;;;;;;5032354;28;20402;-67
2022/09/11 11:52:16;;;;;;;4.80;3.83;;;20.50;99.90;;;;;;5014699;28;20409;-68
2022/09/11 11:54:55;;;;;;;4.00;3.60;;;21.10;99.90;;;;;;5032092;28;20400;-68
2022/09/11 11:57:25;;;;;;;4.40;4.00;;;20.90;99.90;;;;;;5031917;28;20498;-68
2022/09/11 12:00:00;;;;;;;4.70;4.10;;;20.90;99.90;;;;;;5031995;28;20751;-68
2022/09/11 12:02:39;;;;;;;4.33;3.93;;;21.30;99.90;;;;;;5032196;28;20967;-68
2022/09/11 12:05:12;;;;;;;4.27;3.87;;;21.10;99.90;;;;;;5032063;28;20471;-68
2022/09/11 12:07:40;;;;;;;4.77;3.47;;;21.70;99.90;;;;;;5032001;28;20426;-68
2022/09/11 12:10:16;;;;;;;4.70;3.97;;;21.70;99.90;;;;;;5032435;28;20410;-69
2022/09/11 12:12:51;;;;;;;5.77;5.10;;;21.90;99.90;;;;;;5032102;28;20479;-68
2022/09/11 12:15:20;;;;;;;5.13;4.63;;;21.40;99.90;;;;;;5031786;28;20400;-68
2022/09/11 12:17:58;;;;;;;5.30;4.10;;;21.50;99.90;;;;;;5031731;28;20429;-67
2022/09/11 12:20:34;;;;;;;4.73;3.60;;;21.30;99.90;;;;;;5031859;28;20403;-69
2022/09/11 12:23:00;;;;;;;5.97;5.37;;;20.90;99.90;;;;;;5032165;28;20793;-68
2022/09/11 12:25:31;;;;;;;4.70;4.20;;;20.60;99.90;;;;;;5031679;28;20492;-68
2022/09/11 12:28:09;;;;;;;4.90;4.50;;;20.40;99.90;;;;;;5031857;28;20430;-67
2022/09/11 12:30:58;;;;;;;6.47;4.73;;;20.30;99.90;;;;;;5033008;28;20415;-69
2022/09/11 12:33:42;;;;;;;5.23;4.43;;;20.20;99.90;;;;;;5018042;28;20427;-69
2022/09/11 12:36:17;;;;;;;6.90;4.90;;;20.30;99.90;;;;;;5035764;28;20479;-67
2022/09/11 12:38:55;;;;;;;5.23;3.90;;;19.90;99.90;;;;;;5035560;28;20424;-67
2022/09/11 12:41:33;;;;;;;5.10;4.60;;;19.80;99.90;;;;;;5035521;28;20407;-68
2022/09/11 12:43:59;;;;;;;4.33;3.93;;;20.10;99.90;;;;;;5035778;28;20983;-68
2022/09/11 12:46:26;;;;;;;4.93;4.47;;;20.30;99.90;;;;;;5035429;28;20398;-68
2022/09/11 12:48:55;;;;;;;5.80;3.53;;;20.30;99.90;;;;;;5035593;28;20502;-69
2022/09/11 12:51:34;;;;;;;3.60;3.30;;;20.60;99.90;;;;;;5035765;28;20402;-68
2022/09/11 12:54:17;;;;;;;4.20;3.40;;;20.40;99.90;;;;;;5035633;28;21119;-68
2022/09/11 12:56:49;;;;;;;3.20;2.97;;;20.20;99.90;;;;;;5035255;28;20413;-68
2022/09/11 12:59:37;;;;;;;3.70;3.20;;;20.00;99.90;;;;;;5035631;28;20484;-68
2022/09/11 13:02:18;;;;;;;3.40;3.10;;;20.20;99.90;;;;;;5035186;28;20473;-69
2022/09/11 13:04:45;;;;;;;4.60;3.80;;;20.30;99.90;;;;;;5035140;28;20408;-68
2022/09/11 13:07:30;;;;;;;4.07;3.20;;;20.10;99.90;;;;;;5035030;28;20421;-68
2022/09/11 13:09:59;;;;;;;2.70;2.50;;;20.10;99.90;;;;;;5017385;28;20408;-68